Time;durP1;ratioP1;P1;durP2;ratioP2;P2;SDS_P1;SDS_P2;PMS_P1;PMS_P2;Temp;Humidity;BMP_temperature;BMP_pressure;BME280_temperature;BME280_humidity;BME280_pressure;Samples;Min_cycle;Max_cycle;Signal;HPM_P1;HPM_P2
2021/09/23 00:01:40;;;;;;;23.98;14.40;;;8.50;99.90;;;;;;5091369;28;20024;-78
2021/09/23 00:04:20;;;;;;;23.90;13.70;;;8.50;99.90;;;;;;5091570;28;20024;-77
2021/09/23 00:06:46;;;;;;;26.98;14.77;;;8.50;99.90;;;;;;5092670;28;20054;-78
2021/09/23 00:09:12;;;;;;;26.33;15.68;;;8.50;99.90;;;;;;5090436;28;20024;-78
2021/09/23 00:11:38;;;;;;;27.60;15.95;;;8.40;99.90;;;;;;5092627;28;20110;-77
2021/09/23 00:14:04;;;;;;;24.23;15.15;;;8.40;99.90;;;;;;5089929;28;20099;-80
2021/09/23 00:16:30;;;;;;;23.55;13.55;;;8.40;99.90;;;;;;5092544;28;20032;-80
2021/09/23 00:18:55;;;;;;;27.17;13.73;;;8.40;99.90;;;;;;5090321;28;20027;-80
2021/09/23 00:21:21;;;;;;;24.65;14.40;;;8.40;99.90;;;;;;5090972;28;20024;-81
2021/09/23 00:23:48;;;;;;;25.98;14.88;;;8.40;99.90;;;;;;5090089;28;20468;-80
2021/09/23 00:26:13;;;;;;;29.17;16.10;;;8.30;99.90;;;;;;5092409;28;20031;-80
2021/09/23 00:28:39;;;;;;;24.17;14.05;;;8.30;99.90;;;;;;5090081;28;20028;-80
2021/09/23 00:31:05;;;;;;;25.40;14.13;;;8.30;99.90;;;;;;5094724;28;20020;-81
2021/09/23 00:33:31;;;;;;;24.73;13.73;;;8.30;99.90;;;;;;5093724;28;20079;-80
2021/09/23 00:35:57;;;;;;;26.23;14.98;;;8.20;99.90;;;;;;5094754;28;20077;-81
2021/09/23 00:38:22;;;;;;;28.17;14.23;;;8.20;99.90;;;;;;5094683;28;20039;-81
2021/09/23 00:40:48;;;;;;;24.20;13.88;;;8.20;99.90;;;;;;5096019;28;20024;-80
2021/09/23 00:43:14;;;;;;;23.50;14.02;;;8.20;99.90;;;;;;5093408;28;20028;-81
2021/09/23 00:45:39;;;;;;;24.98;14.00;;;8.10;99.90;;;;;;5094565;28;20020;-81
2021/09/23 00:48:05;;;;;;;26.95;13.77;;;8.10;99.90;;;;;;5093666;28;20020;-80
2021/09/23 00:50:31;;;;;;;24.85;14.30;;;8.10;99.90;;;;;;5095672;28;20039;-80
2021/09/23 00:52:57;;;;;;;26.05;14.63;;;8.10;99.90;;;;;;5093295;28;20020;-80
2021/09/23 00:55:23;;;;;;;27.73;14.85;;;8.10;99.90;;;;;;5093515;28;20384;-80
2021/09/23 00:57:49;;;;;;;24.05;13.80;;;8.10;99.90;;;;;;5093438;28;20028;-80
2021/09/23 01:00:16;;;;;;;31.17;15.63;;;8.10;99.90;;;;;;5095173;28;20036;-80
2021/09/23 01:02:42;;;;;;;25.77;15.35;;;8.10;99.90;;;;;;5093173;28;20109;-80
2021/09/23 01:05:09;;;;;;;26.55;15.60;;;8.10;99.90;;;;;;5093877;28;20024;-81
2021/09/23 01:07:36;;;;;;;25.45;14.65;;;8.10;99.90;;;;;;5094112;28;20131;-80
2021/09/23 01:10:03;;;;;;;29.95;16.02;;;8.00;99.90;;;;;;5094826;28;20028;-78
2021/09/23 01:12:29;;;;;;;28.80;16.15;;;8.10;99.90;;;;;;5093980;28;20023;-78
2021/09/23 01:14:55;;;;;;;31.50;16.58;;;8.00;99.90;;;;;;5093039;28;20039;-79
2021/09/23 01:17:22;;;;;;;33.00;18.08;;;8.00;99.90;;;;;;5095197;28;20027;-79
2021/09/23 01:19:48;;;;;;;35.58;17.42;;;7.90;99.90;;;;;;5092982;28;20152;-78
2021/09/23 01:22:15;;;;;;;32.22;16.88;;;7.90;99.90;;;;;;5093440;28;20143;-78
2021/09/23 01:24:41;;;;;;;35.78;17.30;;;7.80;99.90;;;;;;5092960;28;20020;-78
2021/09/23 01:27:10;;;;;;;32.47;16.20;;;7.80;99.90;;;;;;5093794;28;20039;-79
2021/09/23 01:29:37;;;;;;;29.67;16.85;;;7.80;99.90;;;;;;5094156;28;20024;-78
2021/09/23 01:32:05;;;;;;;32.65;17.40;;;7.90;99.90;;;;;;5094896;28;20081;-78
2021/09/23 01:34:32;;;;;;;34.22;18.27;;;7.80;99.90;;;;;;5092345;28;20039;-78
2021/09/23 01:36:58;;;;;;;35.22;17.55;;;7.80;99.90;;;;;;5094798;28;20016;-78
2021/09/23 01:39:25;;;;;;;29.90;16.25;;;7.80;99.90;;;;;;5094173;28;20050;-78
2021/09/23 01:41:53;;;;;;;29.55;18.42;;;7.80;99.90;;;;;;5093525;28;20055;-78
2021/09/23 01:44:19;;;;;;;34.72;16.92;;;7.80;99.90;;;;;;5092462;28;20016;-78
2021/09/23 01:46:44;;;;;;;31.58;16.20;;;7.80;99.90;;;;;;5094385;28;20103;-79
2021/09/23 01:49:10;;;;;;;25.92;15.48;;;7.80;99.90;;;;;;5092380;28;20055;-78
2021/09/23 01:51:36;;;;;;;31.83;17.40;;;7.80;99.90;;;;;;5092973;28;20390;-78
2021/09/23 01:54:02;;;;;;;30.27;17.02;;;7.80;99.90;;;;;;5085318;28;20046;-78
2021/09/23 01:56:28;;;;;;;33.25;17.27;;;7.80;99.90;;;;;;5094395;28;20032;-78
2021/09/23 01:58:54;;;;;;;36.92;17.20;;;7.80;99.90;;;;;;5092934;28;20081;-78
2021/09/23 02:01:21;;;;;;;33.92;19.15;;;7.70;99.90;;;;;;5092859;28;20032;-78
2021/09/23 02:03:47;;;;;;;37.72;18.98;;;7.70;99.90;;;;;;5091949;28;20098;-78
2021/09/23 02:06:12;;;;;;;39.53;20.15;;;7.70;99.90;;;;;;5092353;28;20028;-79
2021/09/23 02:08:38;;;;;;;37.08;19.00;;;7.70;99.90;;;;;;5091988;28;20031;-78
2021/09/23 02:11:06;;;;;;;40.53;20.58;;;7.70;99.90;;;;;;5094166;28;20020;-78
2021/09/23 02:13:32;;;;;;;37.42;21.60;;;7.60;99.90;;;;;;5092014;28;20028;-79
2021/09/23 02:15:58;;;;;;;43.95;22.02;;;7.70;99.90;;;;;;5093922;28;20468;-79
2021/09/23 02:18:24;;;;;;;46.58;23.52;;;7.70;99.90;;;;;;5091884;28;20016;-79
2021/09/23 02:20:49;;;;;;;42.15;22.83;;;7.70;99.90;;;;;;5094006;28;20020;-79
2021/09/23 02:23:15;;;;;;;43.08;22.02;;;7.70;99.90;;;;;;5092736;28;20051;-79
2021/09/23 02:25:42;;;;;;;55.45;26.02;;;7.70;99.90;;;;;;5092594;28;20031;-79
2021/09/23 02:28:07;;;;;;;51.08;25.38;;;7.70;99.90;;;;;;5092461;28;20024;-79
2021/09/23 02:30:33;;;;;;;49.30;25.15;;;7.70;99.90;;;;;;5092696;28;20378;-79
2021/09/23 02:32:59;;;;;;;51.28;25.50;;;7.70;99.90;;;;;;5092756;28;20074;-79
2021/09/23 02:35:25;;;;;;;54.03;25.95;;;7.70;99.90;;;;;;5093591;28;20374;-78
2021/09/23 02:37:51;;;;;;;54.50;27.60;;;7.70;99.90;;;;;;5092448;28;20024;-78
2021/09/23 02:40:16;;;;;;;59.47;28.55;;;7.70;99.90;;;;;;5093671;28;20028;-78
2021/09/23 02:42:42;;;;;;;56.22;27.02;;;7.70;99.90;;;;;;5093516;28;20039;-79
2021/09/23 02:45:10;;;;;;;57.50;27.10;;;7.70;99.90;;;;;;5092800;28;20013;-78
2021/09/23 02:47:35;;;;;;;50.05;25.15;;;7.70;99.90;;;;;;5091994;28;20039;-79
2021/09/23 02:50:02;;;;;;;58.90;27.75;;;7.80;99.90;;;;;;5092548;28;20016;-79
2021/09/23 02:52:28;;;;;;;60.72;29.17;;;7.80;99.90;;;;;;5092772;28;20059;-79
2021/09/23 02:54:53;;;;;;;55.22;28.83;;;7.80;99.90;;;;;;5091415;28;20054;-79
2021/09/23 02:57:19;;;;;;;61.42;29.90;;;7.80;99.90;;;;;;5091763;28;20043;-78
2021/09/23 02:59:45;;;;;;;62.13;29.67;;;7.80;99.90;;;;;;5091140;28;20047;-79
2021/09/23 03:02:11;;;;;;;60.53;30.73;;;7.80;99.90;;;;;;5092965;28;20032;-79
2021/09/23 03:04:37;;;;;;;71.40;34.40;;;7.80;99.90;;;;;;5092349;28;20497;-78
2021/09/23 03:07:03;;;;;;;75.10;34.70;;;7.80;99.90;;;;;;5092738;28;20451;-78
2021/09/23 03:09:28;;;;;;;76.75;35.88;;;7.90;99.90;;;;;;5092284;28;20069;-78
2021/09/23 03:11:54;;;;;;;88.10;38.38;;;7.80;99.90;;;;;;5093236;28;20032;-79
2021/09/23 03:14:19;;;;;;;74.70;37.33;;;7.80;99.90;;;;;;5090699;28;20063;-79
2021/09/23 03:16:45;;;;;;;97.32;40.55;;;7.80;99.90;;;;;;5091731;28;20024;-78
2021/09/23 03:19:11;;;;;;;93.80;39.45;;;7.80;99.90;;;;;;5092020;28;20481;-78
2021/09/23 03:21:37;;;;;;;88.18;40.65;;;7.80;99.90;;;;;;5091437;28;20020;-79
2021/09/23 03:24:05;;;;;;;100.28;41.97;;;7.80;99.90;;;;;;5090770;28;20040;-79
2021/09/23 03:26:31;;;;;;;107.95;40.05;;;7.80;99.90;;;;;;5091440;28;20024;-80
2021/09/23 03:28:56;;;;;;;86.38;38.92;;;7.80;99.90;;;;;;5092049;28;20024;-79
2021/09/23 03:31:22;;;;;;;84.30;39.47;;;7.80;99.90;;;;;;5092836;28;20576;-79
2021/09/23 03:33:48;;;;;;;99.78;41.05;;;7.80;99.90;;;;;;5090606;28;20035;-79
2021/09/23 03:36:13;;;;;;;94.38;40.65;;;7.80;99.90;;;;;;5091442;28;20016;-79
2021/09/23 03:38:41;;;;;;;91.07;39.80;;;7.80;99.90;;;;;;5091810;28;20050;-79
2021/09/23 03:41:07;;;;;;;106.13;40.55;;;7.80;99.90;;;;;;5092544;28;20030;-79
2021/09/23 03:43:33;;;;;;;109.32;42.03;;;7.80;99.90;;;;;;5090435;28;20100;-79
2021/09/23 03:46:03;;;;;;;109.63;41.80;;;7.80;99.90;;;;;;5091378;28;20020;-79
2021/09/23 03:48:30;;;;;;;100.40;41.17;;;7.80;99.90;;;;;;5090461;28;20031;-79
2021/09/23 03:50:56;;;;;;;108.22;46.45;;;7.80;99.90;;;;;;5092662;28;20108;-79
2021/09/23 03:53:21;;;;;;;103.13;45.90;;;7.80;99.90;;;;;;5091747;28;20448;-79
2021/09/23 03:55:47;;;;;;;106.35;43.72;;;7.80;99.90;;;;;;5092471;28;20024;-79
2021/09/23 03:58:13;;;;;;;124.78;48.33;;;7.80;99.90;;;;;;5092111;28;20103;-79
2021/09/23 04:00:38;;;;;;;115.60;46.03;;;7.80;99.90;;;;;;5092538;28;20036;-79
2021/09/23 04:03:04;;;;;;;131.70;48.78;;;7.80;99.90;;;;;;5090229;28;20061;-78
2021/09/23 04:05:30;;;;;;;115.75;46.67;;;7.80;99.90;;;;;;5094573;28;20028;-80
2021/09/23 04:07:55;;;;;;;139.30;49.13;;;7.90;99.90;;;;;;5095765;28;20508;-79
2021/09/23 04:10:22;;;;;;;148.43;51.40;;;7.80;99.90;;;;;;5096446;28;20024;-79
2021/09/23 04:12:49;;;;;;;130.65;50.05;;;7.80;99.90;;;;;;5096691;28;20048;-78
2021/09/23 04:15:15;;;;;;;139.52;49.53;;;7.80;99.90;;;;;;5107563;28;20106;-78
2021/09/23 04:17:41;;;;;;;142.20;50.40;;;7.80;99.90;;;;;;5101847;28;20105;-79
2021/09/23 04:20:07;;;;;;;215.75;59.53;;;7.90;99.90;;;;;;5094308;28;20027;-78
2021/09/23 04:22:33;;;;;;;156.63;54.28;;;7.90;99.90;;;;;;5094780;28;20443;-79
2021/09/23 04:24:59;;;;;;;243.43;60.45;;;7.90;99.90;;;;;;5095085;28;20020;-79
2021/09/23 04:27:25;;;;;;;189.00;53.22;;;7.90;99.90;;;;;;5089574;28;20029;-80
2021/09/23 04:29:50;;;;;;;186.55;54.88;;;7.90;99.90;;;;;;5082655;28;20028;-79
2021/09/23 04:32:16;;;;;;;259.02;63.17;;;7.90;99.90;;;;;;5094084;28;20087;-79
2021/09/23 04:34:42;;;;;;;216.05;56.85;;;7.90;99.90;;;;;;5088404;28;20016;-79
2021/09/23 04:37:07;;;;;;;219.75;57.30;;;7.90;99.90;;;;;;5089441;28;20024;-79
2021/09/23 04:39:33;;;;;;;303.00;69.05;;;7.90;99.90;;;;;;5092070;28;20048;-79
2021/09/23 04:41:59;;;;;;;202.48;57.85;;;7.90;99.90;;;;;;5094568;28;20448;-80
2021/09/23 04:44:25;;;;;;;185.45;55.33;;;7.90;99.90;;;;;;5094845;28;20032;-78
2021/09/23 04:46:51;;;;;;;234.57;59.72;;;7.90;99.90;;;;;;5094535;28;20114;-78
2021/09/23 04:49:18;;;;;;;179.55;55.35;;;7.90;99.90;;;;;;5093184;28;20020;-80
2021/09/23 04:51:43;;;;;;;261.92;64.70;;;7.90;99.90;;;;;;5094402;28;20055;-78
2021/09/23 04:54:09;;;;;;;199.70;55.53;;;7.90;99.90;;;;;;5093115;28;20051;-79
2021/09/23 04:56:36;;;;;;;185.93;58.05;;;7.90;99.90;;;;;;5095563;28;20020;-79
2021/09/23 04:59:02;;;;;;;195.68;60.20;;;7.90;99.90;;;;;;5093209;28;20042;-78
2021/09/23 05:01:28;;;;;;;233.75;59.90;;;7.90;99.90;;;;;;5095793;28;20064;-79
2021/09/23 05:03:55;;;;;;;229.93;58.70;;;7.90;99.90;;;;;;5093012;28;20123;-78
2021/09/23 05:06:20;;;;;;;182.00;54.95;;;8.00;99.90;;;;;;5095114;28;20041;-79
2021/09/23 05:08:46;;;;;;;203.90;57.05;;;8.00;99.90;;;;;;5093317;28;20024;-79
2021/09/23 05:11:11;;;;;;;281.48;65.78;;;8.00;99.90;;;;;;5095176;28;20386;-79
2021/09/23 05:13:37;;;;;;;221.68;56.83;;;8.00;99.90;;;;;;5093231;28;20041;-79
2021/09/23 05:16:03;;;;;;;179.88;55.92;;;8.00;99.90;;;;;;5076241;28;20016;-78
2021/09/23 05:18:29;;;;;;;170.18;53.78;;;8.10;99.90;;;;;;5072146;28;20031;-78
2021/09/23 05:20:54;;;;;;;202.07;55.05;;;8.10;99.90;;;;;;5092544;28;20474;-78
2021/09/23 05:23:20;;;;;;;194.32;53.92;;;8.10;99.90;;;;;;5091764;28;20071;-78
2021/09/23 05:25:46;;;;;;;174.73;51.95;;;8.10;99.90;;;;;;5091470;28;20078;-78
2021/09/23 05:28:11;;;;;;;139.30;49.90;;;8.20;99.90;;;;;;5100334;28;20116;-78
2021/09/23 05:30:39;;;;;;;145.48;47.35;;;8.20;99.90;;;;;;5091759;28;20024;-79
2021/09/23 05:33:05;;;;;;;130.90;46.38;;;8.20;99.90;;;;;;5093619;28;20099;-79
2021/09/23 05:35:32;;;;;;;156.75;51.90;;;8.20;99.90;;;;;;5093018;28;20062;-78
2021/09/23 05:37:58;;;;;;;140.73;47.63;;;8.20;99.90;;;;;;5093067;28;20064;-79
2021/09/23 05:40:23;;;;;;;135.43;45.50;;;8.30;99.90;;;;;;5107209;28;20066;-79
2021/09/23 05:42:49;;;;;;;132.07;45.03;;;8.30;99.90;;;;;;5113291;28;20030;-79
2021/09/23 05:45:15;;;;;;;126.72;46.30;;;8.30;99.90;;;;;;5095320;28;20031;-79
2021/09/23 05:47:42;;;;;;;114.72;43.13;;;8.40;99.90;;;;;;5093156;28;20397;-78
2021/09/23 05:50:10;;;;;;;115.68;43.95;;;8.40;99.90;;;;;;5091850;28;20268;-78
2021/09/23 05:52:36;;;;;;;112.88;41.88;;;8.50;99.90;;;;;;5094300;28;20102;-79
2021/09/23 05:55:03;;;;;;;122.32;43.63;;;8.50;99.90;;;;;;5093253;28;20059;-80
2021/09/23 05:57:34;;;;;;;110.00;42.55;;;8.50;99.90;;;;;;5092389;28;20051;-80
2021/09/23 06:00:07;;;;;;;105.63;41.88;;;8.50;99.90;;;;;;5091741;28;20024;-79
2021/09/23 06:02:33;;;;;;;99.95;39.60;;;8.50;99.90;;;;;;5092567;28;20032;-79
2021/09/23 06:04:59;;;;;;;103.97;41.13;;;8.50;99.90;;;;;;5092803;28;20355;-79
2021/09/23 06:07:24;;;;;;;97.15;40.33;;;8.60;99.90;;;;;;5092418;28;20119;-79
2021/09/23 06:09:50;;;;;;;99.95;38.30;;;8.50;99.90;;;;;;5091568;28;20043;-79
2021/09/23 06:12:16;;;;;;;92.35;40.03;;;8.50;99.90;;;;;;5093343;28;20081;-80
2021/09/23 06:14:41;;;;;;;109.35;41.58;;;8.50;99.90;;;;;;5092295;28;20043;-79
2021/09/23 06:17:07;;;;;;;91.45;37.58;;;8.60;99.90;;;;;;5093432;28;20020;-78
2021/09/23 06:19:33;;;;;;;94.78;41.47;;;8.60;99.90;;;;;;5088964;28;20032;-78
2021/09/23 06:21:58;;;;;;;88.45;38.22;;;8.60;99.90;;;;;;5093693;28;20024;-79
2021/09/23 06:24:24;;;;;;;89.40;37.85;;;8.70;99.90;;;;;;5091300;28;20082;-78
2021/09/23 06:26:50;;;;;;;83.47;38.65;;;8.70;99.90;;;;;;5092451;28;20020;-78
2021/09/23 06:29:17;;;;;;;87.13;38.08;;;8.70;99.90;;;;;;5090558;28;20020;-78
2021/09/23 06:31:42;;;;;;;84.97;38.03;;;8.80;99.90;;;;;;5106538;28;20035;-79
2021/09/23 06:34:08;;;;;;;78.72;35.65;;;8.80;99.90;;;;;;5099768;28;20020;-79
2021/09/23 06:36:35;;;;;;;90.35;38.50;;;8.90;99.90;;;;;;5093375;28;20381;-79
2021/09/23 06:39:01;;;;;;;91.18;38.35;;;8.80;99.90;;;;;;5092815;28;20024;-79
2021/09/23 06:41:27;;;;;;;82.25;38.88;;;8.90;99.90;;;;;;5093180;28;20032;-79
2021/09/23 06:43:53;;;;;;;85.32;37.53;;;9.00;99.90;;;;;;5092485;28;20085;-79
2021/09/23 06:46:20;;;;;;;80.32;36.90;;;9.10;99.90;;;;;;5093413;28;20161;-78
2021/09/23 06:48:48;;;;;;;74.35;36.88;;;9.10;99.90;;;;;;5091937;28;20020;-79
2021/09/23 06:51:13;;;;;;;68.55;34.63;;;9.20;99.90;;;;;;5091827;28;20020;-79
2021/09/23 06:53:40;;;;;;;66.78;31.83;;;9.20;99.90;;;;;;5091032;28;20012;-80
2021/09/23 06:56:05;;;;;;;68.80;32.53;;;9.20;99.90;;;;;;5100920;28;20031;-80
2021/09/23 06:58:31;;;;;;;62.65;31.95;;;9.20;99.90;;;;;;5105109;28;20492;-83
2021/09/23 07:00:57;;;;;;;63.25;31.67;;;9.20;99.90;;;;;;5091576;28;20032;-83
2021/09/23 07:03:22;;;;;;;58.47;31.98;;;9.20;99.90;;;;;;5090173;28;20031;-83
2021/09/23 07:05:48;;;;;;;61.05;29.85;;;9.30;99.90;;;;;;5092683;28;20508;-83
2021/09/23 07:08:17;;;;;;;63.35;30.95;;;9.40;99.90;;;;;;5091191;28;20039;-83
2021/09/23 07:10:43;;;;;;;62.78;29.95;;;9.40;99.90;;;;;;5091559;28;20027;-84
2021/09/23 07:13:09;;;;;;;54.58;29.23;;;9.50;99.90;;;;;;5092390;28;20024;-84
2021/09/23 07:15:34;;;;;;;60.17;27.98;;;9.60;99.90;;;;;;5092847;28;20421;-84
2021/09/23 07:18:00;;;;;;;54.40;29.65;;;9.70;99.90;;;;;;5091203;28;20020;-83
2021/09/23 07:20:26;;;;;;;53.08;25.95;;;9.70;99.90;;;;;;5092403;28;20389;-83
2021/09/23 07:22:52;;;;;;;45.85;25.85;;;9.80;99.90;;;;;;5092512;28;20036;-83
2021/09/23 07:25:20;;;;;;;47.97;26.85;;;9.90;99.90;;;;;;5090720;28;20024;-83
2021/09/23 07:27:45;;;;;;;42.45;24.35;;;10.10;99.90;;;;;;5092479;28;20401;-85
2021/09/23 07:30:12;;;;;;;41.90;24.30;;;10.20;99.90;;;;;;5089835;28;20024;-84
2021/09/23 07:32:37;;;;;;;37.90;20.42;;;10.30;99.90;;;;;;5091176;28;20035;-84
2021/09/23 07:35:04;;;;;;;45.05;22.88;;;10.40;99.90;;;;;;5089265;28;20020;-84
2021/09/23 07:37:29;;;;;;;43.55;20.73;;;10.50;99.90;;;;;;5090350;28;20035;-84
2021/09/23 07:39:55;;;;;;;39.90;21.40;;;10.60;99.90;;;;;;5089989;28;20465;-83
2021/09/23 07:42:21;;;;;;;32.90;18.90;;;10.60;99.90;;;;;;5095544;28;20032;-84
2021/09/23 07:44:47;;;;;;;38.60;20.52;;;10.70;99.90;;;;;;5094750;28;20020;-83
2021/09/23 07:47:13;;;;;;;30.83;18.98;;;10.80;99.90;;;;;;5094783;28;20389;-81
2021/09/23 07:49:40;;;;;;;32.15;17.65;;;10.90;99.90;;;;;;5094536;28;20069;-83
2021/09/23 07:52:06;;;;;;;29.85;17.10;;;11.00;99.90;;;;;;5094908;28;20022;-83
2021/09/23 07:54:32;;;;;;;27.38;15.75;;;11.20;99.90;;;;;;5095691;28;20020;-83
2021/09/23 07:56:58;;;;;;;26.55;13.75;;;11.40;99.90;;;;;;5096072;28;20035;-83
2021/09/23 07:59:24;;;;;;;22.27;12.95;;;11.70;99.90;;;;;;5093940;28;20016;-83
2021/09/23 08:01:49;;;;;;;23.40;12.43;;;11.80;99.90;;;;;;5094064;28;20052;-80
2021/09/23 08:04:15;;;;;;;21.55;11.45;;;12.00;99.90;;;;;;5095124;28;20063;-80
2021/09/23 08:06:41;;;;;;;22.42;11.27;;;12.10;99.90;;;;;;5095582;28;20473;-79
2021/09/23 08:09:07;;;;;;;19.75;10.70;;;12.20;99.90;;;;;;5093614;28;20027;-80
2021/09/23 08:11:33;;;;;;;17.42;9.38;;;12.30;99.90;;;;;;5095574;28;20019;-80
2021/09/23 08:13:59;;;;;;;19.30;10.10;;;12.20;99.90;;;;;;5094887;28;20020;-80
2021/09/23 08:16:24;;;;;;;18.52;9.48;;;12.30;99.90;;;;;;5095335;28;20020;-78
2021/09/23 08:18:50;;;;;;;20.42;8.82;;;12.30;99.90;;;;;;5093973;28;20032;-80
2021/09/23 08:21:16;;;;;;;15.45;8.82;;;12.30;99.90;;;;;;5093923;28;20023;-81
2021/09/23 08:23:41;;;;;;;18.15;8.55;;;12.40;99.90;;;;;;5095138;28;20085;-80
2021/09/23 08:26:07;;;;;;;13.80;7.85;;;12.50;99.90;;;;;;5096045;28;20028;-81
2021/09/23 08:28:35;;;;;;;19.08;9.18;;;12.60;99.90;;;;;;5093543;28;20135;-81
2021/09/23 08:31:01;;;;;;;18.15;8.57;;;12.80;99.90;;;;;;5093898;28;20114;-82
2021/09/23 08:33:27;;;;;;;16.30;9.07;;;13.00;99.90;;;;;;5094174;28;20473;-80
2021/09/23 08:35:52;;;;;;;14.88;8.68;;;13.00;99.90;;;;;;5095742;28;20108;-80
2021/09/23 08:38:19;;;;;;;16.88;6.95;;;12.90;99.90;;;;;;5089094;28;20131;-80
2021/09/23 08:40:47;;;;;;;13.52;7.22;;;13.00;99.90;;;;;;5090958;28;20032;-81
2021/09/23 08:43:14;;;;;;;12.73;7.50;;;13.10;99.90;;;;;;5091222;28;20474;-81
2021/09/23 08:45:40;;;;;;;14.48;7.07;;;13.30;99.90;;;;;;5090454;28;20441;-80
2021/09/23 08:48:07;;;;;;;15.57;7.70;;;13.50;99.90;;;;;;5090498;28;20163;-81
2021/09/23 08:50:34;;;;;;;11.23;6.35;;;13.50;99.90;;;;;;5090999;28;20358;-81
2021/09/23 08:53:00;;;;;;;12.70;6.55;;;13.40;99.90;;;;;;5091606;28;20035;-80
2021/09/23 08:55:28;;;;;;;13.13;7.15;;;13.50;99.90;;;;;;5090213;28;20020;-80
2021/09/23 08:57:56;;;;;;;15.30;7.40;;;13.50;99.90;;;;;;5089159;28;20107;-80
2021/09/23 09:00:22;;;;;;;13.38;7.13;;;13.60;99.90;;;;;;5091259;28;20035;-80
2021/09/23 09:03:17;;;;;;;14.63;6.78;;;13.70;99.90;;;;;;5088789;28;20031;-80
2021/09/23 09:05:52;;;;;;;20.02;7.15;;;13.70;99.90;;;;;;5081360;28;20040;-80
2021/09/23 09:08:18;;;;;;;15.23;7.38;;;13.70;99.90;;;;;;5090973;28;20044;-80
2021/09/23 09:10:44;;;;;;;15.60;7.53;;;13.70;99.90;;;;;;5091724;28;20485;-79
2021/09/23 09:13:10;;;;;;;15.13;6.97;;;13.80;99.90;;;;;;5089324;28;20065;-80
2021/09/23 09:15:45;;;;;;;19.50;9.07;;;13.80;99.90;;;;;;5090558;28;20028;-79
2021/09/23 09:18:20;;;;;;;17.75;8.30;;;13.80;99.90;;;;;;5091573;28;20138;-79
2021/09/23 09:21:01;;;;;;;21.50;7.78;;;13.90;99.90;;;;;;5091378;28;20073;-79
2021/09/23 09:23:49;;;;;;;15.93;8.00;;;14.00;99.90;;;;;;5091328;28;20119;-79
2021/09/23 09:26:39;;;;;;;15.05;7.13;;;14.00;99.90;;;;;;5091411;28;20020;-79
2021/09/23 09:29:06;;;;;;;13.32;7.53;;;14.10;99.90;;;;;;5087195;28;20036;-80
2021/09/23 09:31:33;;;;;;;15.20;7.90;;;14.10;99.90;;;;;;5090881;28;20020;-78
2021/09/23 09:34:01;;;;;;;16.45;8.85;;;14.10;99.90;;;;;;5093010;28;20032;-79
2021/09/23 09:36:42;;;;;;;21.63;7.95;;;14.10;99.90;;;;;;5092111;28;20051;-79
2021/09/23 09:39:13;;;;;;;17.95;8.05;;;14.10;99.90;;;;;;5093033;28;20090;-79
2021/09/23 09:41:41;;;;;;;16.08;7.85;;;14.10;99.90;;;;;;5091802;28;20513;-79
2021/09/23 09:44:09;;;;;;;20.77;8.10;;;14.00;99.90;;;;;;5091236;28;20530;-78
2021/09/23 09:46:46;;;;;;;18.48;8.05;;;14.10;99.90;;;;;;5091108;28;20024;-79
2021/09/23 09:49:12;;;;;;;19.15;7.80;;;14.00;99.90;;;;;;5092869;28;20495;-78
2021/09/23 09:51:38;;;;;;;14.93;7.10;;;14.10;99.90;;;;;;5091656;28;21257;-77
2021/09/23 09:54:05;;;;;;;19.08;7.65;;;14.20;99.90;;;;;;5091500;28;20363;-77
2021/09/23 09:56:31;;;;;;;19.55;7.32;;;14.20;99.90;;;;;;5089434;28;20020;-78
2021/09/23 09:59:16;;;;;;;17.00;8.30;;;14.30;99.90;;;;;;5090883;28;20469;-78
2021/09/23 10:01:53;;;;;;;16.25;6.53;;;14.40;99.90;;;;;;5091534;28;20046;-77
2021/09/23 10:04:20;;;;;;;12.13;6.13;;;14.50;99.90;;;;;;5091767;28;20109;-78
2021/09/23 10:06:47;;;;;;;15.75;7.53;;;14.60;99.90;;;;;;5090272;28;20320;-78
2021/09/23 10:09:15;;;;;;;21.13;7.03;;;14.60;99.90;;;;;;5092179;28;20107;-78
2021/09/23 10:11:46;;;;;;;21.13;7.18;;;14.60;99.90;;;;;;5091220;28;20028;-78
2021/09/23 10:14:15;;;;;;;12.60;7.05;;;14.70;99.90;;;;;;5091803;28;20101;-79
2021/09/23 10:16:41;;;;;;;21.08;6.95;;;14.70;99.90;;;;;;5091686;28;20028;-79
2021/09/23 10:19:08;;;;;;;16.52;6.90;;;14.80;99.90;;;;;;5091566;28;20036;-79
2021/09/23 10:21:34;;;;;;;15.02;6.65;;;14.90;99.90;;;;;;5090891;28;20103;-79
2021/09/23 10:24:02;;;;;;;16.73;6.43;;;14.80;99.90;;;;;;5090773;28;20054;-79
2021/09/23 10:26:30;;;;;;;12.48;6.00;;;14.90;99.90;;;;;;5089506;28;20115;-79
2021/09/23 10:28:59;;;;;;;21.38;6.78;;;14.80;99.90;;;;;;5085152;28;20394;-79
2021/09/23 10:31:31;;;;;;;16.63;6.18;;;14.60;99.90;;;;;;5091586;28;20016;-79
2021/09/23 10:33:59;;;;;;;11.75;6.35;;;14.60;99.90;;;;;;5090675;28;20546;-78
2021/09/23 10:36:27;;;;;;;10.48;6.15;;;14.60;99.90;;;;;;5091206;28;20027;-77
2021/09/23 10:38:55;;;;;;;13.55;7.18;;;14.60;99.90;;;;;;5090175;28;20511;-78
2021/09/23 10:41:22;;;;;;;9.63;6.43;;;14.60;99.90;;;;;;5089811;28;20078;-79
2021/09/23 10:43:49;;;;;;;9.80;5.78;;;14.70;99.90;;;;;;5089416;28;20063;-78
2021/09/23 10:46:16;;;;;;;13.20;6.28;;;14.70;99.90;;;;;;5090235;28;20367;-78
2021/09/23 10:48:46;;;;;;;15.88;6.20;;;14.80;99.90;;;;;;5088009;28;20144;-78
2021/09/23 10:51:15;;;;;;;13.32;6.38;;;14.80;99.90;;;;;;5087740;28;20024;-79
2021/09/23 10:53:55;;;;;;;11.73;6.65;;;14.80;99.90;;;;;;5087142;28;20016;-79
2021/09/23 10:56:21;;;;;;;13.82;7.30;;;14.80;99.90;;;;;;5085714;28;20410;-78
2021/09/23 10:58:53;;;;;;;10.65;5.88;;;14.80;99.90;;;;;;5086237;28;20351;-78
2021/09/23 11:01:30;;;;;;;16.35;6.82;;;14.70;99.90;;;;;;5090664;28;20474;-79
2021/09/23 11:03:58;;;;;;;11.77;6.35;;;14.70;99.90;;;;;;5089358;28;20039;-78
2021/09/23 11:06:39;;;;;;;13.00;6.88;;;14.70;99.90;;;;;;5089675;28;20024;-78
2021/09/23 11:09:23;;;;;;;12.77;7.07;;;14.50;99.90;;;;;;5088796;28;20370;-79
2021/09/23 11:11:50;;;;;;;13.43;7.10;;;14.50;99.90;;;;;;5068245;28;20036;-79
2021/09/23 11:14:17;;;;;;;11.20;7.30;;;14.50;99.90;;;;;;5086903;28;20036;-79
2021/09/23 11:16:48;;;;;;;17.50;7.60;;;14.40;99.90;;;;;;5085046;28;20024;-79
2021/09/23 11:19:17;;;;;;;15.98;7.50;;;14.50;99.90;;;;;;5087523;28;20032;-79
2021/09/23 11:21:43;;;;;;;20.05;7.82;;;14.50;99.90;;;;;;5087305;28;20550;-78
2021/09/23 11:24:11;;;;;;;18.15;8.27;;;14.60;99.90;;;;;;5086627;28;20115;-79
2021/09/23 11:26:37;;;;;;;19.95;8.60;;;14.60;99.90;;;;;;5086594;28;20038;-80
2021/09/23 11:29:03;;;;;;;15.43;8.60;;;14.50;99.90;;;;;;5086264;28;20020;-78
2021/09/23 11:31:46;;;;;;;11.18;7.50;;;14.60;99.90;;;;;;5090307;28;20024;-79
2021/09/23 11:34:12;;;;;;;14.77;7.53;;;14.50;99.90;;;;;;5090584;28;20508;-79
2021/09/23 11:36:43;;;;;;;16.58;7.05;;;14.50;99.90;;;;;;5089899;28;20020;-79
2021/09/23 11:39:17;;;;;;;17.80;8.13;;;14.60;99.90;;;;;;5090282;28;20074;-79
2021/09/23 11:41:43;;;;;;;12.13;7.18;;;14.60;99.90;;;;;;5090054;28;20086;-78
2021/09/23 11:44:35;;;;;;;14.52;7.95;;;14.60;99.90;;;;;;5088994;28;20048;-79
2021/09/23 11:47:01;;;;;;;13.05;7.78;;;14.70;99.90;;;;;;5088633;28;20485;-78
2021/09/23 11:49:26;;;;;;;13.93;7.43;;;14.70;99.90;;;;;;5088453;28;20089;-79
2021/09/23 11:51:55;;;;;;;23.45;12.65;;;14.80;99.90;;;;;;5089362;28;20111;-79
2021/09/23 11:54:22;;;;;;;11.45;7.65;;;14.90;99.90;;;;;;5088679;28;20389;-79
2021/09/23 11:56:48;;;;;;;10.32;7.80;;;14.80;99.90;;;;;;5089056;28;21255;-78
2021/09/23 11:59:25;;;;;;;12.60;8.27;;;14.90;99.90;;;;;;5089471;28;20036;-79
2021/09/23 12:02:05;;;;;;;13.00;7.30;;;15.00;99.90;;;;;;5089292;28;20382;-79
2021/09/23 12:04:32;;;;;;;12.48;7.57;;;15.10;99.90;;;;;;5088355;28;20070;-79
2021/09/23 12:07:05;;;;;;;15.57;8.43;;;15.20;99.90;;;;;;5089520;28;20024;-78
2021/09/23 12:09:33;;;;;;;14.57;9.10;;;15.30;99.90;;;;;;5069516;28;20105;-78
2021/09/23 12:12:01;;;;;;;16.23;9.07;;;15.50;99.90;;;;;;5071211;28;20047;-80
2021/09/23 12:14:27;;;;;;;16.55;7.93;;;15.60;99.90;;;;;;5087995;28;20467;-79
2021/09/23 12:17:02;;;;;;;13.65;9.20;;;15.60;99.90;;;;;;5089043;28;20080;-79
2021/09/23 12:19:28;;;;;;;12.35;8.32;;;15.60;99.90;;;;;;5089298;28;20044;-79
2021/09/23 12:21:55;;;;;;;12.95;8.30;;;15.70;99.90;;;;;;5089096;28;20020;-80
2021/09/23 12:24:32;;;;;;;14.13;8.18;;;15.80;99.90;;;;;;5088023;28;20095;-79
2021/09/23 12:26:58;;;;;;;12.77;8.13;;;15.80;99.90;;;;;;5093216;28;20028;-78
2021/09/23 12:29:24;;;;;;;13.77;7.97;;;15.90;99.90;;;;;;5087953;28;20594;-78
2021/09/23 12:32:03;;;;;;;17.27;8.60;;;15.90;99.90;;;;;;5092515;28;20032;-78
2021/09/23 12:34:29;;;;;;;12.32;8.32;;;16.10;99.90;;;;;;5093266;28;20047;-78